Time;durP1;ratioP1;P1;durP2;ratioP2;P2;SDS_P1;SDS_P2;PMS_P1;PMS_P2;Temp;Humidity;BMP_temperature;BMP_pressure;BME280_temperature;BME280_humidity;BME280_pressure;Samples;Min_cycle;Max_cycle;Signal;HPM_P1;HPM_P2
2022/09/08 00:01:33;;;;;;;4.60;3.53;;;;;;;15.59;88.44;98064.41;4238824;27;20111;-71
2022/09/08 00:03:35;;;;;;;10.00;3.55;;;;;;;15.59;86.53;98061.59;4238679;27;20057;-71
2022/09/08 00:06:05;;;;;;;4.63;3.95;;;;;;;15.57;87.34;98054.88;4238567;27;20043;-71
2022/09/08 00:08:09;;;;;;;7.20;3.45;;;;;;;15.42;88.98;98045.94;4237768;27;20039;-71
2022/09/08 00:10:11;;;;;;;4.38;3.70;;;;;;;15.33;90.44;98048.47;4237822;27;20042;-71
2022/09/08 00:12:13;;;;;;;6.35;3.90;;;;;;;15.28;90.68;98052.50;4238984;27;20031;-71
2022/09/08 00:14:13;;;;;;;5.85;3.90;;;;;;;15.25;90.83;98056.13;4238135;27;20194;-71
2022/09/08 00:16:18;;;;;;;6.35;3.92;;;;;;;15.23;90.10;98049.41;4238719;27;20206;-71
2022/09/08 00:18:19;;;;;;;8.13;4.10;;;;;;;15.23;90.24;98038.25;4237221;27;20068;-71
2022/09/08 00:20:20;;;;;;;4.88;4.38;;;;;;;15.23;89.82;98035.47;4238773;27;20027;-71
2022/09/08 00:22:21;;;;;;;5.45;3.90;;;;;;;15.18;90.32;98033.94;4238482;27;20335;-71
2022/09/08 00:24:21;;;;;;;6.65;4.43;;;;;;;15.13;90.32;98026.03;4238228;27;20051;-71
2022/09/08 00:26:22;;;;;;;5.03;4.18;;;;;;;15.13;90.39;98031.59;4238520;27;20715;-71
2022/09/08 00:28:22;;;;;;;4.25;3.55;;;;;;;15.10;90.21;98029.66;4237913;27;20039;-71
2022/09/08 00:30:23;;;;;;;3.65;3.30;;;;;;;15.11;88.98;98029.25;4238535;27;20821;-71
2022/09/08 00:32:23;;;;;;;7.07;3.75;;;;;;;15.12;89.02;98022.47;4238020;27;20537;-71
2022/09/08 00:34:23;;;;;;;5.47;4.07;;;;;;;15.09;88.53;98037.25;4219039;27;20047;-71
2022/09/08 00:36:24;;;;;;;6.90;3.78;;;;;;;15.09;88.49;98026.09;4219860;27;20048;-72
2022/09/08 00:38:26;;;;;;;4.88;4.18;;;;;;;15.07;88.12;98022.16;4237673;27;20051;-72
2022/09/08 00:40:26;;;;;;;5.50;3.75;;;;;;;15.03;88.60;98013.84;4238486;27;20825;-71
2022/09/08 00:42:26;;;;;;;4.75;3.70;;;;;;;15.02;89.48;98006.69;4238318;27;20042;-71
2022/09/08 00:44:49;;;;;;;4.10;3.72;;;;;;;14.99;90.44;98010.31;4238054;27;20043;-71
2022/09/08 00:46:53;;;;;;;4.97;4.32;;;;;;;14.98;90.43;98010.75;4237774;27;20566;-71
2022/09/08 00:48:57;;;;;;;5.68;4.18;;;;;;;14.95;89.79;98004.00;4237649;27;20043;-71
2022/09/08 00:51:01;;;;;;;4.07;3.50;;;;;;;14.95;89.51;98001.22;4238167;27;20035;-71
2022/09/08 00:53:08;;;;;;;4.63;3.67;;;;;;;14.90;89.89;97996.13;4238090;27;20058;-71
2022/09/08 00:55:10;;;;;;;5.35;4.03;;;;;;;14.87;90.28;97999.72;4237752;27;20047;-71
2022/09/08 00:57:10;;;;;;;6.30;4.05;;;;;;;14.91;88.87;97996.91;4237343;27;20059;-71
2022/09/08 00:59:12;;;;;;;8.43;4.32;;;;;;;14.88;90.27;97993.72;4237210;27;20047;-71
2022/09/08 01:01:13;;;;;;;6.25;4.45;;;;;;;14.76;90.73;97982.38;4238374;27;20429;-71
2022/09/08 01:03:15;;;;;;;5.40;4.13;;;;;;;14.75;90.86;97986.38;4237866;27;20042;-71
2022/09/08 01:05:23;;;;;;;5.80;4.55;;;;;;;14.78;89.71;97986.31;4237279;27;20042;-71
2022/09/08 01:14:50;;;;;;;7.57;3.72;;;;;;;14.99;88.24;97970.53;4237664;27;20293;-71
2022/09/08 01:16:50;;;;;;;5.93;3.78;;;;;;;14.99;88.32;97971.31;4236706;27;20445;-71
2022/09/08 01:18:52;;;;;;;6.35;4.20;;;;;;;15.04;87.69;97962.47;4237070;27;20388;-71
2022/09/08 01:21:13;;;;;;;5.53;4.18;;;;;;;15.05;88.23;97958.47;4218530;28;20048;-71
2022/09/08 01:23:40;;;;;;;4.80;3.97;;;;;;;15.05;88.54;97963.25;4236772;27;20129;-71
2022/09/08 01:26:11;;;;;;;6.82;4.13;;;;;;;14.99;89.10;97953.81;4236799;27;20439;-71
2022/09/08 01:28:15;;;;;;;5.22;4.05;;;;;;;14.92;89.37;97940.00;4236584;27;20043;-71
2022/09/08 01:30:16;;;;;;;7.68;3.97;;;;;;;14.89;89.18;97953.56;4236472;27;20027;-71
2022/09/08 01:32:17;;;;;;;4.85;3.65;;;;;;;14.86;89.67;97948.81;4237214;27;20035;-71
2022/09/08 01:34:17;;;;;;;4.65;4.20;;;;;;;14.83;90.26;97951.66;4237041;27;20083;-71
2022/09/08 01:36:19;;;;;;;5.50;3.83;;;;;;;14.81;90.31;97949.28;4237763;27;20434;-71
2022/09/08 01:38:19;;;;;;;6.65;4.22;;;;;;;14.78;91.32;97947.31;4236453;27;20039;-71
2022/09/08 01:40:20;;;;;;;7.95;4.47;;;;;;;14.77;91.34;97945.75;4237465;27;20079;-71
2022/09/08 01:42:20;;;;;;;6.20;4.47;;;;;;;14.81;89.93;97943.72;4237385;27;20055;-71
2022/09/08 01:44:20;;;;;;;4.13;3.58;;;;;;;14.83;89.64;97946.88;4237078;27;20059;-71
2022/09/08 01:46:21;;;;;;;7.15;3.78;;;;;;;14.91;88.56;97939.22;4236559;27;20051;-71
2022/09/08 01:48:22;;;;;;;7.75;4.38;;;;;;;14.94;88.83;97946.72;4236241;27;20063;-71
2022/09/08 01:50:22;;;;;;;7.20;4.25;;;;;;;14.95;89.28;97934.34;4237161;27;20099;-71
2022/09/08 01:52:22;;;;;;;4.82;4.03;;;;;;;14.96;89.79;97937.94;4237154;27;20468;-71
2022/09/08 01:54:23;;;;;;;6.10;4.70;;;;;;;14.94;91.03;97946.72;4237320;27;20526;-71
2022/09/08 01:56:23;;;;;;;8.95;4.85;;;;;;;14.97;90.71;97937.50;4236582;27;20047;-71
2022/09/08 01:58:24;;;;;;;6.93;4.40;;;;;;;14.99;90.62;97935.09;4236380;27;20471;-71
2022/09/08 02:00:24;;;;;;;6.05;4.57;;;;;;;15.02;90.01;97927.91;4237171;27;20690;-71
2022/09/08 02:02:25;;;;;;;5.50;3.92;;;;;;;15.07;89.04;97933.78;4236834;27;20032;-71
2022/09/08 02:04:25;;;;;;;7.35;4.47;;;;;;;15.16;88.08;97934.06;4236288;27;20135;-71
2022/09/08 02:06:25;;;;;;;6.38;4.30;;;;;;;15.18;88.17;97928.84;4236970;27;20039;-71
2022/09/08 02:08:26;;;;;;;6.13;4.18;;;;;;;15.19;88.63;97929.63;4236052;27;20055;-71
2022/09/08 02:10:26;;;;;;;4.43;4.03;;;;;;;15.19;89.11;97932.41;4236868;27;20497;-71
2022/09/08 02:12:26;;;;;;;4.88;3.90;;;;;;;15.20;89.27;97928.41;4236945;27;20099;-71
2022/09/08 02:14:27;;;;;;;7.43;4.43;;;;;;;15.20;89.56;97927.63;4236919;27;20043;-71
2022/09/08 02:16:28;;;;;;;9.32;4.43;;;;;;;15.20;89.92;97922.03;4236509;27;20401;-71
2022/09/08 02:18:30;;;;;;;8.68;3.92;;;;;;;15.21;90.23;97918.03;4235766;27;20075;-71
2022/09/08 02:20:31;;;;;;;4.93;4.28;;;;;;;15.17;90.78;97913.34;4236098;27;20465;-71
2022/09/08 02:22:32;;;;;;;6.32;4.22;;;;;;;15.15;91.13;97915.75;4236904;27;20035;-71
2022/09/08 02:24:32;;;;;;;4.95;4.40;;;;;;;15.13;91.00;97909.00;4236122;27;20567;-71
2022/09/08 02:26:33;;;;;;;8.30;3.85;;;;;;;15.12;90.39;97919.38;4236661;27;20475;-71
2022/09/08 02:28:34;;;;;;;6.07;4.00;;;;;;;15.12;90.58;97915.78;4235940;27;20050;-71
2022/09/08 02:30:35;;;;;;;9.90;4.53;;;;;;;15.08;91.44;97903.94;4236393;27;20122;-71
2022/09/08 02:32:36;;;;;;;10.50;4.50;;;;;;;15.10;92.17;97910.66;4236225;27;20497;-71
2022/09/08 02:34:36;;;;;;;8.38;4.55;;;;;;;15.11;91.88;97912.22;4236087;27;20035;-71
2022/09/08 02:36:37;;;;;;;5.55;4.00;;;;;;;15.10;91.12;97909.88;4237732;27;20054;-72
2022/09/08 02:38:38;;;;;;;4.43;4.03;;;;;;;15.14;90.16;97916.97;4235955;27;20067;-72
2022/09/08 02:40:38;;;;;;;5.00;3.92;;;;;;;15.21;89.73;97913.25;4236485;27;20042;-71
2022/09/08 02:42:39;;;;;;;7.68;4.38;;;;;;;15.26;89.69;97923.16;4236754;28;20043;-71
2022/09/08 02:44:39;;;;;;;7.45;4.22;;;;;;;15.30;89.47;97918.28;4236522;28;20028;-71
2022/09/08 02:46:41;;;;;;;5.03;4.03;;;;;;;15.32;89.18;97918.69;4235938;28;20088;-71
2022/09/08 02:48:42;;;;;;;4.90;4.35;;;;;;;15.35;87.88;97921.41;4235665;28;20079;-71
2022/09/08 02:50:42;;;;;;;5.80;4.30;;;;;;;15.40;87.42;97917.34;4236651;28;20039;-71
2022/09/08 02:52:43;;;;;;;4.78;4.18;;;;;;;15.40;87.70;97926.50;4236199;28;20049;-71
2022/09/08 02:54:43;;;;;;;6.57;3.75;;;;;;;15.45;87.11;97936.38;4236392;28;20277;-71
2022/09/08 02:56:44;;;;;;;8.23;4.07;;;;;;;15.52;86.62;97943.81;4236568;28;20437;-71
2022/09/08 02:58:44;;;;;;;5.50;3.80;;;;;;;15.57;86.81;97941.34;4235329;28;20039;-71
2022/09/08 03:00:45;;;;;;;8.00;4.95;;;;;;;15.58;87.12;97940.13;4235412;28;20039;-71
2022/09/08 03:02:47;;;;;;;8.60;4.70;;;;;;;15.63;86.62;97947.25;4236317;28;20279;-71
2022/09/08 03:04:47;;;;;;;9.75;4.75;;;;;;;15.68;88.06;97943.97;4236122;28;20063;-71
2022/09/08 03:06:47;;;;;;;9.13;4.65;;;;;;;15.63;90.29;97941.66;4235652;28;20050;-71
2022/09/08 03:08:49;;;;;;;5.95;4.30;;;;;;;15.61;89.04;97932.94;4234595;28;20037;-71
2022/09/08 03:10:49;;;;;;;5.20;3.70;;;;;;;15.58;91.18;97939.34;4234513;28;20031;-71
2022/09/08 03:12:52;;;;;;;8.50;3.78;;;;;;;15.56;89.14;97942.56;4235422;28;20035;-71
2022/09/08 03:14:54;;;;;;;6.03;4.30;;;;;;;15.60;89.39;97932.13;4235135;28;20509;-71
2022/09/08 03:16:56;;;;;;;4.78;3.70;;;;;;;15.62;90.48;97940.88;4234055;28;20065;-71
2022/09/08 03:18:57;;;;;;;11.50;4.68;;;;;;;15.62;92.71;97952.03;4233295;28;20058;-71
2022/09/08 03:20:59;;;;;;;5.43;3.75;;;;;;;15.57;91.22;97948.94;4233959;28;20577;-71
2022/09/08 03:23:01;;;;;;;5.60;4.20;;;;;;;15.54;90.83;97944.97;4235243;28;20126;-71
2022/09/08 03:25:02;;;;;;;5.72;4.07;;;;;;;15.57;90.92;97949.72;4234764;28;20051;-71
2022/09/08 03:27:02;;;;;;;7.40;4.22;;;;;;;15.58;90.64;97950.50;4234371;28;20231;-71
2022/09/08 03:29:03;;;;;;;6.85;3.97;;;;;;;15.65;90.10;97972.72;4233561;28;20527;-71
2022/09/08 03:31:07;;;;;;;8.55;4.45;;;;;;;15.66;93.01;97975.09;4214921;28;20512;-71
2022/09/08 03:33:08;;;;;;;6.30;4.10;;;;;;;15.65;91.43;97978.31;4237006;27;20658;-71
2022/09/08 03:35:11;;;;;;;8.15;4.43;;;;;;;15.62;92.13;97973.56;4238381;27;20058;-71
2022/09/08 03:37:11;;;;;;;6.70;4.25;;;;;;;15.60;93.08;97979.53;4236767;27;20046;-71
2022/09/08 03:39:11;;;;;;;6.53;3.95;;;;;;;15.64;94.16;97985.88;4238027;27;20546;-71
2022/09/08 03:41:14;;;;;;;6.10;4.00;;;;;;;15.64;94.59;97988.66;4237729;27;20146;-71
2022/09/08 03:43:14;;;;;;;6.22;3.28;;;;;;;15.73;96.17;97983.34;4238501;27;20031;-71
2022/09/08 03:45:17;;;;;;;7.78;3.90;;;;;;;15.84;94.38;97985.16;4237376;27;20364;-71
2022/09/08 03:47:17;;;;;;;5.88;3.30;;;;;;;15.99;96.19;97986.47;4237971;27;20046;-71
2022/09/08 03:49:17;;;;;;;5.68;3.28;;;;;;;16.06;96.62;97985.56;4236326;27;20286;-71
2022/09/08 03:51:22;;;;;;;4.70;3.03;;;;;;;16.14;94.99;97981.44;4237749;27;20071;-71
2022/09/08 03:53:23;;;;;;;6.53;2.90;;;;;;;16.21;95.60;97982.06;4237772;27;20035;-71
2022/09/08 03:55:23;;;;;;;6.15;2.90;;;;;;;16.32;94.41;97978.28;4237732;27;20515;-71
2022/09/08 03:57:26;;;;;;;4.88;2.53;;;;;;;16.37;94.47;97981.34;4237995;27;20046;-71
2022/09/08 03:59:28;;;;;;;4.50;2.28;;;;;;;16.37;96.37;97975.00;4237121;27;20043;-71
2022/09/08 04:01:28;;;;;;;5.90;2.63;;;;;;;16.31;96.69;97982.31;4237917;27;20039;-71
2022/09/08 04:03:29;;;;;;;4.65;2.25;;;;;;;16.27;98.06;97974.78;4237346;27;20099;-71
2022/09/08 04:05:30;;;;;;;8.15;4.07;;;;;;;16.25;96.65;97968.03;4237656;27;20071;-71
2022/09/08 04:07:31;;;;;;;3.80;2.20;;;;;;;16.21;96.34;97970.88;4237648;27;20807;-71
2022/09/08 04:09:31;;;;;;;4.45;2.35;;;;;;;16.20;96.77;97971.31;4237398;27;20067;-71
2022/09/08 04:11:32;;;;;;;6.85;2.55;;;;;;;16.17;98.05;97969.41;4237725;27;20456;-71
2022/09/08 04:13:32;;;;;;;7.07;2.47;;;;;;;16.12;98.55;97970.66;4237410;27;20071;-71
2022/09/08 04:15:33;;;;;;;4.78;2.00;;;;;;;16.06;97.59;97957.66;4237471;27;20082;-71
2022/09/08 04:17:33;;;;;;;3.45;2.00;;;;;;;16.08;98.38;97955.22;4237694;27;20035;-71
2022/09/08 04:19:34;;;;;;;4.03;2.10;;;;;;;16.06;98.83;97952.88;4236947;27;20703;-71
2022/09/08 04:21:34;;;;;;;3.33;2.17;;;;;;;16.07;99.41;97948.06;4235756;27;20039;-71
2022/09/08 04:23:34;;;;;;;5.30;2.83;;;;;;;16.06;99.91;97940.91;4237605;27;20047;-71
2022/09/08 04:25:35;;;;;;;4.30;2.20;;;;;;;16.05;99.40;97950.47;4219469;27;20130;-71
2022/09/08 04:27:35;;;;;;;6.55;2.35;;;;;;;16.05;100.00;97942.09;4237254;27;20047;-71
2022/09/08 04:29:35;;;;;;;4.50;2.10;;;;;;;16.01;100.00;97929.03;4236832;27;20050;-71
2022/09/08 04:31:36;;;;;;;3.47;2.50;;;;;;;16.00;100.00;97932.25;4236339;27;20039;-71
2022/09/08 04:33:36;;;;;;;4.55;2.20;;;;;;;16.00;100.00;97932.25;4237492;27;20671;-71
2022/09/08 04:35:36;;;;;;;4.95;2.45;;;;;;;15.98;100.00;97932.69;4237229;27;20126;-71
2022/09/08 04:37:38;;;;;;;6.15;2.70;;;;;;;15.96;100.00;97923.94;4238702;27;20043;-71
2022/09/08 04:39:38;;;;;;;4.35;2.20;;;;;;;15.95;100.00;97922.34;4237250;27;20162;-71
2022/09/08 04:41:39;;;;;;;6.57;3.03;;;;;;;15.96;100.00;97923.94;4237529;27;20516;-71
2022/09/08 04:43:40;;;;;;;8.13;2.55;;;;;;;15.96;100.00;97912.75;4237173;27;20130;-71
2022/09/08 04:45:40;;;;;;;5.18;2.40;;;;;;;15.89;100.00;97918.50;4237146;27;20138;-71
2022/09/08 04:47:40;;;;;;;3.88;2.40;;;;;;;15.88;100.00;97919.69;4237487;27;20377;-71
2022/09/08 04:49:41;;;;;;;3.55;2.50;;;;;;;15.86;100.00;97924.13;4236778;27;20047;-71
2022/09/08 04:51:42;;;;;;;3.88;2.28;;;;;;;15.86;100.00;97921.34;4218785;28;20185;-71
2022/09/08 04:53:43;;;;;;;5.10;2.30;;;;;;;15.85;100.00;97923.34;4166298;27;20035;-71
2022/09/08 04:55:44;;;;;;;2.60;2.00;;;;;;;15.85;100.00;97906.59;4236439;27;20560;-71
2022/09/08 04:57:44;;;;;;;2.53;2.00;;;;;;;15.93;100.00;97916.41;4237017;27;20095;-71
2022/09/08 04:59:44;;;;;;;3.20;2.30;;;;;;;15.94;100.00;97901.25;4236727;27;20495;-71
2022/09/08 05:01:45;;;;;;;4.15;2.28;;;;;;;15.94;100.00;97897.69;4237855;27;20043;-71
2022/09/08 05:03:47;;;;;;;3.75;2.47;;;;;;;15.90;100.00;97892.19;4237986;27;20084;-71
2022/09/08 05:05:47;;;;;;;5.70;2.90;;;;;;;15.83;100.00;97895.09;4236913;27;20164;-71
2022/09/08 05:07:49;;;;;;;4.53;2.95;;;;;;;15.83;100.00;97897.09;4238078;27;20050;-71
2022/09/08 05:09:50;;;;;;;3.42;2.97;;;;;;;15.80;100.00;97895.16;4236892;27;20478;-71
2022/09/08 05:11:50;;;;;;;4.43;2.90;;;;;;;15.81;100.00;97894.75;4237393;27;20298;-71
2022/09/08 05:13:50;;;;;;;4.20;2.50;;;;;;;15.82;100.00;97892.75;4237124;27;20047;-71
2022/09/08 05:15:51;;;;;;;3.42;2.38;;;;;;;15.81;100.00;97899.53;4237342;27;20047;-71
2022/09/08 05:17:53;;;;;;;3.65;2.78;;;;;;;15.77;100.00;97887.66;4219301;28;20115;-71
2022/09/08 05:19:53;;;;;;;6.18;3.45;;;;;;;15.75;100.00;97887.28;4236396;27;20039;-71
2022/09/08 05:21:53;;;;;;;5.35;2.90;;;;;;;15.73;100.00;97871.78;4238136;27;20049;-71
2022/09/08 05:23:55;;;;;;;3.45;2.63;;;;;;;15.75;100.00;97865.78;4237091;27;20519;-71
2022/09/08 05:26:01;;;;;;;3.50;2.40;;;;;;;15.73;100.00;97865.41;4237105;27;20055;-71
2022/09/08 05:28:01;;;;;;;2.95;2.55;;;;;;;15.73;100.00;97863.41;4236219;27;20043;-72
2022/09/08 05:30:02;;;;;;;5.70;2.90;;;;;;;15.77;100.00;97874.50;4236807;27;20033;-72
2022/09/08 05:32:02;;;;;;;4.18;2.78;;;;;;;15.79;100.00;97874.06;4236898;27;20106;-71
2022/09/08 05:34:03;;;;;;;4.75;3.22;;;;;;;15.78;100.00;97867.69;4236554;27;20041;-71
2022/09/08 05:36:13;;;;;;;6.60;2.55;;;;;;;15.75;100.00;97862.19;4236224;27;20042;-71
2022/09/08 05:38:13;;;;;;;6.65;3.30;;;;;;;15.72;100.00;97866.59;4234522;27;20035;-72
2022/09/08 05:40:14;;;;;;;6.55;3.22;;;;;;;15.73;100.00;97857.84;4235655;27;20087;-72
2022/09/08 05:42:14;;;;;;;3.20;2.35;;;;;;;15.73;100.00;97859.84;4236031;27;20509;-71
2022/09/08 05:44:15;;;;;;;5.10;2.92;;;;;;;15.78;100.00;97873.28;4236242;27;20035;-71
2022/09/08 05:46:15;;;;;;;4.45;3.17;;;;;;;15.80;100.00;97873.63;4236271;27;20047;-71
2022/09/08 05:48:15;;;;;;;6.72;3.33;;;;;;;15.80;100.00;97867.25;4236825;27;20037;-71
2022/09/08 05:50:16;;;;;;;5.70;2.65;;;;;;;15.78;100.00;97864.91;4236385;27;20027;-71
2022/09/08 05:52:16;;;;;;;5.68;3.08;;;;;;;15.73;100.00;97860.63;4236648;27;20123;-71
2022/09/08 05:54:17;;;;;;;3.45;2.78;;;;;;;15.71;100.00;97862.25;4237232;27;20326;-71
2022/09/08 05:56:18;;;;;;;6.22;3.13;;;;;;;15.69;100.00;97862.69;4235663;27;20062;-71
2022/09/08 05:58:19;;;;;;;6.45;2.97;;;;;;;15.72;100.00;97861.84;4236338;27;20027;-71
2022/09/08 06:00:20;;;;;;;4.40;2.88;;;;;;;15.75;100.00;97865.78;4237154;27;20374;-71
2022/09/08 06:02:21;;;;;;;6.05;2.78;;;;;;;15.77;100.00;97857.75;4236741;27;20051;-71
2022/09/08 06:04:22;;;;;;;4.03;2.65;;;;;;;15.76;100.00;97855.41;4236475;27;20043;-71
2022/09/08 06:06:22;;;;;;;5.22;3.10;;;;;;;15.80;100.00;97854.09;4236722;27;20047;-71
2022/09/08 06:08:23;;;;;;;11.45;3.38;;;;;;;15.82;100.00;97848.91;4218217;28;20376;-71
2022/09/08 06:10:24;;;;;;;7.63;3.17;;;;;;;15.82;100.00;97859.28;4235866;27;20123;-71
2022/09/08 06:12:24;;;;;;;9.50;4.32;;;;;;;15.80;100.00;97856.09;4237122;27;20035;-71
2022/09/08 06:14:24;;;;;;;4.93;2.95;;;;;;;15.79;100.00;97854.53;4236794;27;20304;-71
2022/09/08 06:16:26;;;;;;;6.40;3.30;;;;;;;15.85;100.00;97861.19;4236450;27;20164;-71
2022/09/08 06:18:26;;;;;;;7.18;3.17;;;;;;;15.87;100.00;97862.34;4236049;27;20381;-71
2022/09/08 06:20:28;;;;;;;8.75;3.70;;;;;;;15.88;100.00;97861.13;4236429;27;20059;-71
2022/09/08 06:22:29;;;;;;;6.00;3.53;;;;;;;15.85;100.00;97866.78;4236918;27;20114;-71
2022/09/08 06:24:30;;;;;;;3.13;2.60;;;;;;;15.80;100.00;97870.03;4236083;27;20039;-71
2022/09/08 06:26:46;;;;;;;3.63;3.05;;;;;;;15.77;100.00;97865.34;4236614;27;20176;-71
2022/09/08 06:28:55;;;;;;;3.67;3.00;;;;;;;15.79;100.00;97868.47;4236144;27;20050;-71
2022/09/08 06:30:56;;;;;;;6.78;3.50;;;;;;;15.79;100.00;97866.47;4236645;27;20347;-71
2022/09/08 06:33:10;;;;;;;6.30;3.30;;;;;;;15.79;100.00;97869.25;4236406;27;20047;-71
2022/09/08 06:35:35;;;;;;;5.32;3.15;;;;;;;15.81;100.00;97885.59;4236784;27;20467;-72
2022/09/08 06:37:41;;;;;;;6.00;3.53;;;;;;;15.82;100.00;97893.53;4235592;27;20035;-71
2022/09/08 06:39:53;;;;;;;5.68;3.45;;;;;;;15.85;100.00;97892.66;4235672;27;20088;-71
2022/09/08 06:42:04;;;;;;;6.90;3.00;;;;;;;15.96;100.00;97892.44;4236374;27;20513;-71
2022/09/08 06:44:14;;;;;;;9.55;2.90;;;;;;;16.01;100.00;97884.38;4236040;27;20042;-71
2022/09/08 06:46:21;;;;;;;8.25;3.60;;;;;;;16.08;100.00;97879.88;4235568;28;20027;-71
2022/09/08 06:48:29;;;;;;;5.82;3.55;;;;;;;16.08;100.00;97871.50;4236299;28;20410;-72
2022/09/08 06:50:33;;;;;;;5.80;3.35;;;;;;;16.07;100.00;97861.56;4235931;28;20046;-71
2022/09/08 06:52:49;;;;;;;5.38;3.58;;;;;;;16.00;100.00;97849.31;4236164;28;20035;-71
2022/09/08 06:54:58;;;;;;;7.57;4.20;;;;;;;16.02;100.00;97838.50;4235360;28;20427;-71
2022/09/08 06:57:22;;;;;;;5.47;3.90;;;;;;;15.98;100.00;97839.81;4236693;28;20073;-71
2022/09/08 06:59:43;;;;;;;5.00;3.33;;;;;;;16.01;100.00;97844.53;4235850;28;20035;-71
2022/09/08 07:01:49;;;;;;;5.55;3.72;;;;;;;16.03;100.00;97853.25;4236227;28;20047;-71
2022/09/08 07:04:17;;;;;;;5.10;3.42;;;;;;;16.07;100.00;97847.63;4216460;28;20042;-71
2022/09/08 07:06:21;;;;;;;5.80;3.45;;;;;;;16.11;100.00;97848.31;4236775;27;20104;-71
2022/09/08 07:08:30;;;;;;;8.23;3.72;;;;;;;16.16;100.00;97845.81;4239140;27;20356;-71
2022/09/08 07:10:39;;;;;;;6.38;3.85;;;;;;;16.17;100.00;97849.41;4239612;27;20131;-71
2022/09/08 07:13:00;;;;;;;6.75;4.65;;;;;;;16.17;100.00;97844.59;4239666;27;20036;-71
2022/09/08 07:15:16;;;;;;;4.90;3.40;;;;;;;16.18;100.00;97842.59;4240115;27;20391;-71
2022/09/08 07:17:33;;;;;;;8.20;4.10;;;;;;;16.15;100.00;97830.28;4239194;27;20047;-71
2022/09/08 07:19:41;;;;;;;5.63;3.35;;;;;;;16.16;100.00;97836.66;4239522;27;20126;-71
2022/09/08 07:21:52;;;;;;;6.68;4.32;;;;;;;16.15;100.00;97835.09;4239712;27;20133;-71
2022/09/08 07:23:55;;;;;;;7.43;4.40;;;;;;;16.10;100.00;97828.00;4238760;27;20248;-71
2022/09/08 07:26:02;;;;;;;6.50;4.10;;;;;;;16.11;100.00;97832.34;4239727;27;20051;-71
2022/09/08 07:28:05;;;;;;;6.75;4.30;;;;;;;16.11;100.00;97837.16;4239499;27;20055;-71
2022/09/08 07:30:05;;;;;;;4.13;3.72;;;;;;;16.12;100.00;97833.13;4238954;27;20035;-71
2022/09/08 07:32:12;;;;;;;7.55;4.38;;;;;;;16.12;100.00;97833.13;4239355;27;20065;-71
2022/09/08 07:34:25;;;;;;;6.07;3.95;;;;;;;16.17;100.00;97824.28;4239056;27;20106;-71
2022/09/08 07:36:35;;;;;;;5.20;3.83;;;;;;;16.19;100.00;97825.41;4240811;27;20062;-71
2022/09/08 07:38:47;;;;;;;7.22;4.32;;;;;;;16.23;100.00;97822.56;4238116;27;20054;-71
2022/09/08 07:40:51;;;;;;;5.82;3.63;;;;;;;16.26;100.00;97816.09;4238959;27;20035;-72
2022/09/08 07:42:57;;;;;;;6.30;3.63;;;;;;;16.31;100.00;97812.03;4239047;27;20438;-71
2022/09/08 07:45:00;;;;;;;6.93;4.65;;;;;;;16.38;100.00;97811.84;4239325;27;20142;-71
2022/09/08 07:47:31;;;;;;;6.30;3.95;;;;;;;16.43;100.00;97803.75;4239500;27;20047;-71
2022/09/08 07:50:00;;;;;;;8.23;4.68;;;;;;;16.50;100.00;97808.41;4238490;27;20107;-71
2022/09/08 07:52:22;;;;;;;5.85;3.53;;;;;;;16.57;100.00;97802.66;4238599;27;20051;-71
2022/09/08 07:54:32;;;;;;;7.63;4.17;;;;;;;16.58;100.00;97795.84;4238606;27;20073;-71
2022/09/08 07:56:41;;;;;;;9.90;4.30;;;;;;;16.65;100.00;97804.06;4239226;27;20294;-71
2022/09/08 07:59:07;;;;;;;8.82;4.45;;;;;;;16.69;100.00;97801.97;4238207;27;20050;-71
2022/09/08 08:01:33;;;;;;;7.22;4.25;;;;;;;16.69;100.00;97806.78;4200557;27;20066;-71
2022/09/08 08:04:12;;;;;;;6.57;3.78;;;;;;;16.66;100.00;97808.41;4205179;27;20406;-71
2022/09/08 08:06:25;;;;;;;8.18;3.80;;;;;;;16.64;100.00;97812.88;4236354;27;20395;-71
2022/09/08 08:08:53;;;;;;;6.97;5.05;;;;;;;16.68;100.00;97833.13;4237915;27;20051;-71
2022/09/08 08:11:12;;;;;;;7.25;4.53;;;;;;;16.71;100.00;97838.63;4238578;27;20513;-71
2022/09/08 08:13:24;;;;;;;8.07;4.63;;;;;;;16.70;100.00;97839.84;4238305;27;20049;-72
2022/09/08 08:15:32;;;;;;;4.97;3.70;;;;;;;16.69;100.00;97848.69;4238554;27;20047;-72
2022/09/08 08:17:43;;;;;;;8.18;4.43;;;;;;;16.68;100.00;97858.25;4238070;27;20050;-71
2022/09/08 08:20:04;;;;;;;6.25;4.13;;;;;;;16.58;100.00;97846.91;4237754;27;20398;-72
2022/09/08 08:22:43;;;;;;;7.22;4.45;;;;;;;16.56;100.00;97843.75;4237085;27;20047;-72
2022/09/08 08:24:53;;;;;;;9.85;6.53;;;;;;;16.54;100.00;97839.81;4225071;27;20085;-72
2022/09/08 08:27:02;;;;;;;9.98;8.15;;;;;;;16.56;100.00;97854.13;4238388;27;20315;-72
2022/09/08 08:30:00;;;;;;;12.90;8.85;;;;;;;16.57;100.00;97856.50;4237717;27;20363;-72
2022/09/08 08:32:27;;;;;;;13.55;9.23;;;;;;;16.62;100.00;97859.97;4168466;28;20581;-72
2022/09/08 08:34:40;;;;;;;10.90;8.13;;;;;;;16.64;100.00;97857.56;4164694;28;20049;-71
2022/09/08 08:36:44;;;;;;;10.02;6.45;;;;;;;16.60;100.00;97868.00;4184537;27;20380;-72
2022/09/08 08:38:49;;;;;;;8.00;5.90;;;;;;;16.52;100.00;97872.97;4237841;27;20046;-72
2022/09/08 08:40:59;;;;;;;7.28;5.70;;;;;;;16.50;100.00;97878.19;4238105;27;20510;-72
2022/09/08 08:43:13;;;;;;;7.32;5.13;;;;;;;16.48;100.00;97875.06;4237870;27;20050;-72
2022/09/08 08:45:30;;;;;;;9.73;4.93;;;;;;;16.42;100.00;97863.59;4238368;27;20513;-72
2022/09/08 08:48:04;;;;;;;7.55;4.50;;;;;;;16.44;100.00;97860.38;4237872;27;20522;-72
2022/09/08 08:50:12;;;;;;;7.25;5.57;;;;;;;16.40;100.00;97859.69;4236369;27;20050;-71
2022/09/08 08:52:39;;;;;;;7.10;5.72;;;;;;;16.42;100.00;97860.81;4238375;27;20024;-71
2022/09/08 08:55:00;;;;;;;10.25;6.13;;;;;;;16.44;100.00;97854.78;4238213;27;20043;-71
2022/09/08 08:57:29;;;;;;;9.20;6.47;;;;;;;16.42;100.00;97858.03;4238208;27;20096;-71
2022/09/08 08:59:48;;;;;;;11.48;6.50;;;;;;;16.46;100.00;97869.88;4218639;28;20047;-72
2022/09/08 09:01:57;;;;;;;10.10;6.22;;;;;;;16.47;100.00;97865.13;4237723;27;20445;-72
2022/09/08 09:04:06;;;;;;;8.95;6.57;;;;;;;16.44;100.00;97858.38;4237744;27;20043;-71
2022/09/08 09:06:36;;;;;;;6.43;4.93;;;;;;;16.43;100.00;97865.19;4237473;27;20043;-72
2022/09/08 09:08:57;;;;;;;10.55;5.93;;;;;;;16.43;100.00;97861.59;4236747;27;20062;-72
2022/09/08 09:11:06;;;;;;;9.75;6.05;;;;;;;16.40;100.00;97860.47;4218689;28;20039;-71
2022/09/08 09:13:32;;;;;;;7.30;5.88;;;;;;;16.42;100.00;97852.44;4237663;27;20280;-71
2022/09/08 09:15:52;;;;;;;7.68;5.35;;;;;;;16.45;100.00;97850.78;4227933;27;20375;-71
2022/09/08 09:18:01;;;;;;;8.15;5.68;;;;;;;16.47;100.00;97859.53;4237535;27;20047;-71
2022/09/08 09:20:27;;;;;;;8.45;5.50;;;;;;;16.48;100.00;97852.72;4237205;27;20419;-72
2022/09/08 09:22:48;;;;;;;6.20;4.75;;;;;;;16.53;100.00;97858.56;4219085;28;20043;-71
2022/09/08 09:25:10;;;;;;;6.60;4.15;;;;;;;16.50;100.00;97856.66;4236812;27;20422;-71
2022/09/08 09:27:17;;;;;;;7.68;5.20;;;;;;;16.50;100.00;97861.44;4237584;27;20043;-72
2022/09/08 09:29:25;;;;;;;6.78;4.80;;;;;;;16.50;100.00;97853.06;4236847;27;20442;-71
2022/09/08 09:31:53;;;;;;;7.30;3.90;;;;;;;16.52;100.00;97862.56;4236834;27;20364;-72
2022/09/08 09:34:35;;;;;;;6.15;4.13;;;;;;;16.57;100.00;97864.09;4236743;27;20085;-72
2022/09/08 09:36:56;;;;;;;6.10;3.95;;;;;;;16.58;100.00;97848.91;4238143;27;20047;-72
2022/09/08 09:39:07;;;;;;;5.50;3.90;;;;;;;16.64;100.00;97847.19;4236612;27;20058;-72
2022/09/08 09:41:07;;;;;;;6.20;3.83;;;;;;;16.68;100.00;97845.06;4237375;27;20475;-72
2022/09/08 09:43:38;;;;;;;4.95;4.00;;;;;;;16.73;100.00;97847.38;4218748;28;20047;-71
2022/09/08 09:46:13;;;;;;;5.10;3.60;;;;;;;16.69;100.00;97843.09;4236848;27;20068;-72
2022/09/08 09:48:45;;;;;;;7.75;3.95;;;;;;;16.68;100.00;97839.47;4236245;27;20069;-71
2022/09/08 09:50:55;;;;;;;4.50;3.60;;;;;;;16.69;100.00;97837.50;4236441;27;20039;-71
2022/09/08 09:53:12;;;;;;;7.03;4.10;;;;;;;16.69;100.00;97843.09;4236776;27;20107;-71
2022/09/08 09:56:01;;;;;;;6.57;4.20;;;;;;;16.71;100.00;97841.44;4236838;27;20070;-71
2022/09/08 09:58:20;;;;;;;4.28;3.25;;;;;;;16.76;100.00;97835.34;4151838;28;20092;-71
2022/09/08 10:00:28;;;;;;;7.13;4.22;;;;;;;16.72;100.00;97833.88;4236811;27;20467;-71